sensor_id;sensor_type;location;lat;lon;timestamp;pressure;altitude;pressure_sealevel;temperature;humidity
62708;BME280;48769;51.624;5.886;2023-05-14T00:00:41;101743.81;;;16.59;87.38
62708;BME280;48769;51.624;5.886;2023-05-14T00:03:09;101740.19;;;16.60;87.71
62708;BME280;48769;51.624;5.886;2023-05-14T00:05:34;101733.13;;;16.59;87.81
62708;BME280;48769;51.624;5.886;2023-05-14T00:07:59;101731.63;;;16.55;88.09
62708;BME280;48769;51.624;5.886;2023-05-14T00:10:26;101733.31;;;16.56;87.68
62708;BME280;48769;51.624;5.886;2023-05-14T00:12:51;101730.97;;;16.52;87.86
62708;BME280;48769;51.624;5.886;2023-05-14T00:15:17;101734.66;;;16.49;87.85
62708;BME280;48769;51.624;5.886;2023-05-14T00:17:42;101730.38;;;16.47;87.88
62708;BME280;48769;51.624;5.886;2023-05-14T00:20:08;101729.72;;;16.43;88.18
62708;BME280;48769;51.624;5.886;2023-05-14T00:22:36;101729.91;;;16.40;88.28
62708;BME280;48769;51.624;5.886;2023-05-14T00:25:02;101721.34;;;16.35;88.30
62708;BME280;48769;51.624;5.886;2023-05-14T00:27:28;101728.88;;;16.28;88.48
62708;BME280;48769;51.624;5.886;2023-05-14T00:29:53;101730.28;;;16.20;89.51
62708;BME280;48769;51.624;5.886;2023-05-14T00:32:18;101729.44;;;16.19;89.73
62708;BME280;48769;51.624;5.886;2023-05-14T00:34:44;101725.31;;;16.13;90.14
62708;BME280;48769;51.624;5.886;2023-05-14T00:37:09;101724.53;;;16.11;89.76
62708;BME280;48769;51.624;5.886;2023-05-14T00:39:34;101718.66;;;16.06;90.05
62708;BME280;48769;51.624;5.886;2023-05-14T00:42:00;101716.25;;;16.02;90.44
62708;BME280;48769;51.624;5.886;2023-05-14T00:44:25;101727.97;;;15.99;90.90
62708;BME280;48769;51.624;5.886;2023-05-14T00:46:51;101726.41;;;15.95;90.91
62708;BME280;48769;51.624;5.886;2023-05-14T00:49:17;101713.38;;;15.91;91.25
62708;BME280;48769;51.624;5.886;2023-05-14T00:51:43;101713.66;;;15.86;91.90
62708;BME280;48769;51.624;5.886;2023-05-14T00:54:15;101706.59;;;15.85;92.31
62708;BME280;48769;51.624;5.886;2023-05-14T00:56:43;101705.94;;;15.81;92.15
62708;BME280;48769;51.624;5.886;2023-05-14T00:59:09;101709.63;;;15.79;92.77
62708;BME280;48769;51.624;5.886;2023-05-14T01:01:34;101707.53;;;15.70;93.00
62708;BME280;48769;51.624;5.886;2023-05-14T01:04:00;101703.47;;;15.62;93.75
62708;BME280;48769;51.624;5.886;2023-05-14T01:11:25;101703.47;;;15.62;94.71
62708;BME280;48769;51.624;5.886;2023-05-14T01:16:28;101710.88;;;15.57;95.21
62708;BME280;48769;51.624;5.886;2023-05-14T01:18:55;101703.06;;;15.54;95.19
62708;BME280;48769;51.624;5.886;2023-05-14T01:21:38;101706.00;;;15.50;96.08
62708;BME280;48769;51.624;5.886;2023-05-14T01:24:05;101700.78;;;15.48;96.62
62708;BME280;48769;51.624;5.886;2023-05-14T01:26:31;101705.78;;;15.38;97.61
62708;BME280;48769;51.624;5.886;2023-05-14T01:29:23;101706.97;;;15.33;98.40
62708;BME280;48769;51.624;5.886;2023-05-14T01:31:52;101709.06;;;15.28;98.73
62708;BME280;48769;51.624;5.886;2023-05-14T01:34:20;101703.97;;;15.23;99.26
62708;BME280;48769;51.624;5.886;2023-05-14T01:36:50;101705.13;;;15.19;99.06
62708;BME280;48769;51.624;5.886;2023-05-14T01:39:17;101705.28;;;15.16;99.04
62708;BME280;48769;51.624;5.886;2023-05-14T01:41:43;101701.94;;;15.12;98.84
62708;BME280;48769;51.624;5.886;2023-05-14T01:44:10;101703.06;;;15.08;99.13
62708;BME280;48769;51.624;5.886;2023-05-14T01:46:36;101702.47;;;15.03;100.00
62708;BME280;48769;51.624;5.886;2023-05-14T01:49:02;101693.97;;;14.96;100.00
62708;BME280;48769;51.624;5.886;2023-05-14T01:51:27;101692.16;;;14.97;99.93
62708;BME280;48769;51.624;5.886;2023-05-14T01:53:52;101695.78;;;14.80;100.00
62708;BME280;48769;51.624;5.886;2023-05-14T01:56:19;101692.94;;;14.67;100.00
62708;BME280;48769;51.624;5.886;2023-05-14T01:58:46;101692.50;;;14.59;100.00
62708;BME280;48769;51.624;5.886;2023-05-14T02:01:11;101692.28;;;14.46;100.00
62708;BME280;48769;51.624;5.886;2023-05-14T02:03:36;101688.94;;;14.43;100.00
62708;BME280;48769;51.624;5.886;2023-05-14T02:06:02;101690.13;;;14.37;100.00
62708;BME280;48769;51.624;5.886;2023-05-14T02:08:27;101694.75;;;14.34;100.00
62708;BME280;48769;51.624;5.886;2023-05-14T02:10:52;101684.28;;;14.31;100.00
62708;BME280;48769;51.624;5.886;2023-05-14T02:13:18;101687.25;;;14.24;100.00
62708;BME280;48769;51.624;5.886;2023-05-14T02:15:43;101689.22;;;14.21;100.00
62708;BME280;48769;51.624;5.886;2023-05-14T02:18:08;101690.25;;;14.18;100.00
62708;BME280;48769;51.624;5.886;2023-05-14T02:20:34;101678.81;;;14.16;100.00
62708;BME280;48769;51.624;5.886;2023-05-14T02:22:59;101678.97;;;14.13;100.00
62708;BME280;48769;51.624;5.886;2023-05-14T02:25:24;101684.28;;;14.13;100.00
62708;BME280;48769;51.624;5.886;2023-05-14T02:27:50;101674.56;;;14.14;100.00
62708;BME280;48769;51.624;5.886;2023-05-14T02:30:15;101674.28;;;14.18;100.00
62708;BME280;48769;51.624;5.886;2023-05-14T02:32:40;101674.47;;;14.15;100.00
62708;BME280;48769;51.624;5.886;2023-05-14T02:35:06;101674.47;;;14.15;100.00
62708;BME280;48769;51.624;5.886;2023-05-14T02:37:31;101672.75;;;14.14;100.00
62708;BME280;48769;51.624;5.886;2023-05-14T02:39:58;101674.28;;;14.18;100.00
62708;BME280;48769;51.624;5.886;2023-05-14T02:42:24;101674.28;;;14.18;100.00
62708;BME280;48769;51.624;5.886;2023-05-14T02:44:49;101669.16;;;14.15;100.00
62708;BME280;48769;51.624;5.886;2023-05-14T02:47:16;101667.44;;;14.14;100.00
62708;BME280;48769;51.624;5.886;2023-05-14T02:49:41;101671.91;;;14.14;100.00
62708;BME280;48769;51.624;5.886;2023-05-14T02:52:07;101668.28;;;14.15;100.00
62708;BME280;48769;51.624;5.886;2023-05-14T02:54:32;101675.41;;;14.14;100.00
62708;BME280;48769;51.624;5.886;2023-05-14T02:56:57;101673.06;;;14.08;100.00
62708;BME280;48769;51.624;5.886;2023-05-14T02:59:23;101671.53;;;14.04;100.00
62708;BME280;48769;51.624;5.886;2023-05-14T03:01:48;101669.72;;;14.05;100.00
62708;BME280;48769;51.624;5.886;2023-05-14T03:04:14;101661.06;;;14.01;100.00
62708;BME280;48769;51.624;5.886;2023-05-14T03:06:40;101666.00;;;13.91;100.00
62708;BME280;48769;51.624;5.886;2023-05-14T03:09:05;101660.31;;;13.82;100.00
62708;BME280;48769;51.624;5.886;2023-05-14T03:11:31;101655.31;;;13.75;100.00
62708;BME280;48769;51.624;5.886;2023-05-14T03:13:56;101665.09;;;13.75;100.00
62708;BME280;48769;51.624;5.886;2023-05-14T03:16:22;101662.47;;;13.73;100.00
62708;BME280;48769;51.624;5.886;2023-05-14T03:18:47;101658.88;;;13.74;100.00
62708;BME280;48769;51.624;5.886;2023-05-14T03:21:12;101658.34;;;13.68;100.00
62708;BME280;48769;51.624;5.886;2023-05-14T03:23:38;101656.63;;;13.67;100.00
62708;BME280;48769;51.624;5.886;2023-05-14T03:26:03;101657.63;;;13.64;100.00
62708;BME280;48769;51.624;5.886;2023-05-14T03:28:29;101660.56;;;13.60;100.00
62708;BME280;48769;51.624;5.886;2023-05-14T03:30:54;101656.88;;;13.62;100.00
62708;BME280;48769;51.624;5.886;2023-05-14T03:33:20;101657.81;;;13.61;100.00
62708;BME280;48769;51.624;5.886;2023-05-14T03:35:45;101652.50;;;13.61;100.00
62708;BME280;48769;51.624;5.886;2023-05-14T03:38:11;101645.63;;;13.57;100.00
62708;BME280;48769;51.624;5.886;2023-05-14T03:40:36;101647.69;;;13.52;100.00
62708;BME280;48769;51.624;5.886;2023-05-14T03:43:01;101647.69;;;13.52;100.00
62708;BME280;48769;51.624;5.886;2023-05-14T03:45:27;101650.25;;;13.53;100.00
62708;BME280;48769;51.624;5.886;2023-05-14T03:47:54;101647.69;;;13.52;100.00
62708;BME280;48769;51.624;5.886;2023-05-14T03:50:19;101651.25;;;13.51;100.00
62708;BME280;48769;51.624;5.886;2023-05-14T03:52:45;101648.69;;;13.49;100.00
62708;BME280;48769;51.624;5.886;2023-05-14T03:55:10;101650.41;;;13.50;100.00
62708;BME280;48769;51.624;5.886;2023-05-14T03:57:35;101642.59;;;13.47;100.00
62708;BME280;48769;51.624;5.886;2023-05-14T04:00:02;101645.34;;;13.46;100.00
62708;BME280;48769;51.624;5.886;2023-05-14T04:02:27;101642.53;;;13.49;100.00
62708;BME280;48769;51.624;5.886;2023-05-14T04:04:52;101642.75;;;13.44;100.00
62708;BME280;48769;51.624;5.886;2023-05-14T04:07:18;101639.22;;;13.44;100.00
62708;BME280;48769;51.624;5.886;2023-05-14T04:09:43;101638.44;;;13.42;100.00
62708;BME280;48769;51.624;5.886;2023-05-14T04:12:09;101637.59;;;13.41;100.00
62708;BME280;48769;51.624;5.886;2023-05-14T04:14:34;101644.53;;;13.44;100.00
62708;BME280;48769;51.624;5.886;2023-05-14T04:16:59;101639.53;;;13.38;100.00
62708;BME280;48769;51.624;5.886;2023-05-14T04:19:24;101644.84;;;13.38;100.00
62708;BME280;48769;51.624;5.886;2023-05-14T04:21:50;101642.03;;;13.41;100.00
62708;BME280;48769;51.624;5.886;2023-05-14T04:24:15;101645.38;;;13.44;100.00
62708;BME280;48769;51.624;5.886;2023-05-14T04:26:41;101645.53;;;13.41;100.00
62708;BME280;48769;51.624;5.886;2023-05-14T04:29:06;101655.31;;;13.41;100.00
62708;BME280;48769;51.624;5.886;2023-05-14T04:31:31;101649.28;;;13.37;100.00
62708;BME280;48769;51.624;5.886;2023-05-14T04:33:57;101654.59;;;13.37;100.00
62708;BME280;48769;51.624;5.886;2023-05-14T04:36:22;101643.91;;;13.39;100.00
62708;BME280;48769;51.624;5.886;2023-05-14T04:38:48;101654.31;;;13.43;100.00
62708;BME280;48769;51.624;5.886;2023-05-14T04:41:13;101653.13;;;13.49;100.00
62708;BME280;48769;51.624;5.886;2023-05-14T04:43:38;101652.81;;;13.55;100.00
62708;BME280;48769;51.624;5.886;2023-05-14T04:46:04;101650.88;;;13.59;100.00
62708;BME280;48769;51.624;5.886;2023-05-14T04:48:30;101644.84;;;13.55;100.00
62708;BME280;48769;51.624;5.886;2023-05-14T04:50:55;101650.78;;;13.60;100.00
62708;BME280;48769;51.624;5.886;2023-05-14T04:53:21;101646.88;;;13.67;100.00
62708;BME280;48769;51.624;5.886;2023-05-14T04:55:46;101647.50;;;13.72;100.00
62708;BME280;48769;51.624;5.886;2023-05-14T04:58:11;101649.84;;;13.78;100.00
62708;BME280;48769;51.624;5.886;2023-05-14T05:00:37;101649.38;;;13.88;100.00
62708;BME280;48769;51.624;5.886;2023-05-14T05:03:02;101651.69;;;14.27;100.00
62708;BME280;48769;51.624;5.886;2023-05-14T05:05:28;101640.25;;;14.74;100.00
62708;BME280;48769;51.624;5.886;2023-05-14T05:07:53;101649.75;;;15.10;100.00
62708;BME280;48769;51.624;5.886;2023-05-14T05:10:19;101650.19;;;15.18;100.00
62708;BME280;48769;51.624;5.886;2023-05-14T05:12:44;101649.38;;;15.32;100.00
62708;BME280;48769;51.624;5.886;2023-05-14T05:15:10;101646.88;;;15.59;100.00
62708;BME280;48769;51.624;5.886;2023-05-14T05:17:35;101648.03;;;15.99;98.42
62708;BME280;48769;51.624;5.886;2023-05-14T05:20:01;101653.13;;;16.31;94.52
62708;BME280;48769;51.624;5.886;2023-05-14T05:22:26;101647.16;;;16.42;91.53
62708;BME280;48769;51.624;5.886;2023-05-14T05:24:52;101641.53;;;16.73;90.99
62708;BME280;48769;51.624;5.886;2023-05-14T05:27:17;101644.06;;;17.03;89.17
62708;BME280;48769;51.624;5.886;2023-05-14T05:29:43;101648.75;;;17.27;86.41
62708;BME280;48769;51.624;5.886;2023-05-14T05:32:08;101645.38;;;17.50;84.95
62708;BME280;48769;51.624;5.886;2023-05-14T05:34:34;101655.06;;;17.79;84.07
62708;BME280;48769;51.624;5.886;2023-05-14T05:37:00;101647.34;;;18.12;83.60
62708;BME280;48769;51.624;5.886;2023-05-14T05:39:26;101640.16;;;18.26;80.67
62708;BME280;48769;51.624;5.886;2023-05-14T05:41:52;101634.69;;;18.53;79.60
62708;BME280;48769;51.624;5.886;2023-05-14T05:44:17;101638.03;;;18.80;78.59
62708;BME280;48769;51.624;5.886;2023-05-14T05:46:43;101638.03;;;19.04;77.30
62708;BME280;48769;51.624;5.886;2023-05-14T05:49:08;101639.69;;;19.18;77.69
62708;BME280;48769;51.624;5.886;2023-05-14T05:51:33;101635.59;;;19.36;76.63
62708;BME280;48769;51.624;5.886;2023-05-14T05:53:58;101634.88;;;19.70;73.99
62708;BME280;48769;51.624;5.886;2023-05-14T05:56:24;101630.41;;;19.93;72.04
62708;BME280;48769;51.624;5.886;2023-05-14T05:58:49;101626.75;;;19.82;70.99
62708;BME280;48769;51.624;5.886;2023-05-14T06:01:14;101636.28;;;19.62;72.26
62708;BME280;48769;51.624;5.886;2023-05-14T06:03:40;101633.88;;;19.24;72.97
62708;BME280;48769;51.624;5.886;2023-05-14T06:06:05;101641.50;;;19.53;73.18
62708;BME280;48769;51.624;5.886;2023-05-14T06:08:30;101638.88;;;19.64;71.63
62708;BME280;48769;51.624;5.886;2023-05-14T06:10:56;101638.47;;;19.22;73.18
62708;BME280;48769;51.624;5.886;2023-05-14T06:13:21;101651.16;;;18.96;75.28
62708;BME280;48769;51.624;5.886;2023-05-14T06:15:46;101640.31;;;18.98;73.40
62708;BME280;48769;51.624;5.886;2023-05-14T06:18:12;101646.81;;;18.82;74.86
62708;BME280;48769;51.624;5.886;2023-05-14T06:20:37;101640.94;;;18.77;73.72
62708;BME280;48769;51.624;5.886;2023-05-14T06:23:02;101636.78;;;19.21;73.38
62708;BME280;48769;51.624;5.886;2023-05-14T06:25:28;101644.44;;;19.96;71.91
62708;BME280;48769;51.624;5.886;2023-05-14T06:27:53;101647.38;;;20.61;68.96
62708;BME280;48769;51.624;5.886;2023-05-14T06:30:18;101642.91;;;20.93;67.23
62708;BME280;48769;51.624;5.886;2023-05-14T06:32:43;101637.13;;;21.09;66.51
62708;BME280;48769;51.624;5.886;2023-05-14T06:35:09;101635.16;;;20.68;67.30
62708;BME280;48769;51.624;5.886;2023-05-14T06:37:34;101650.06;;;20.38;69.05
62708;BME280;48769;51.624;5.886;2023-05-14T06:40:00;101641.88;;;20.17;67.97
62708;BME280;48769;51.624;5.886;2023-05-14T06:42:26;101650.66;;;20.19;70.10
62708;BME280;48769;51.624;5.886;2023-05-14T06:44:51;101640.06;;;21.06;67.57
62708;BME280;48769;51.624;5.886;2023-05-14T06:47:16;101642.66;;;20.85;66.35
62708;BME280;48769;51.624;5.886;2023-05-14T06:49:42;101634.31;;;20.56;66.13
62708;BME280;48769;51.624;5.886;2023-05-14T06:52:07;101635.66;;;20.62;66.85
62708;BME280;48769;51.624;5.886;2023-05-14T06:54:32;101638.91;;;20.76;68.67
62708;BME280;48769;51.624;5.886;2023-05-14T06:56:58;101642.50;;;20.98;68.37
62708;BME280;48769;51.624;5.886;2023-05-14T06:59:23;101628.53;;;21.99;64.70
62708;BME280;48769;51.624;5.886;2023-05-14T07:01:48;101622.03;;;22.82;63.39
62708;BME280;48769;51.624;5.886;2023-05-14T07:04:14;101621.78;;;23.44;60.01
62708;BME280;48769;51.624;5.886;2023-05-14T07:06:39;101609.97;;;22.86;58.48
62708;BME280;48769;51.624;5.886;2023-05-14T07:09:04;101621.38;;;22.09;61.51
62708;BME280;48769;51.624;5.886;2023-05-14T07:11:31;101615.94;;;22.90;61.18
62708;BME280;48769;51.624;5.886;2023-05-14T07:13:56;101605.53;;;23.92;57.72
62708;BME280;48769;51.624;5.886;2023-05-14T07:16:21;101607.53;;;24.73;54.78
62708;BME280;48769;51.624;5.886;2023-05-14T07:18:47;101607.94;;;25.14;53.61
62708;BME280;48769;51.624;5.886;2023-05-14T07:21:12;101609.22;;;25.46;54.01
62708;BME280;48769;51.624;5.886;2023-05-14T07:23:37;101607.00;;;25.67;52.79
62708;BME280;48769;51.624;5.886;2023-05-14T07:26:06;101602.91;;;26.15;50.70
62708;BME280;48769;51.624;5.886;2023-05-14T07:28:32;101591.59;;;26.62;48.44
62708;BME280;48769;51.624;5.886;2023-05-14T07:30:57;101596.00;;;26.79;49.10
62708;BME280;48769;51.624;5.886;2023-05-14T07:33:23;101594.69;;;27.08;46.72
62708;BME280;48769;51.624;5.886;2023-05-14T07:35:49;101589.91;;;26.86;46.36
62708;BME280;48769;51.624;5.886;2023-05-14T07:38:14;101600.38;;;25.17;49.65
62708;BME280;48769;51.624;5.886;2023-05-14T07:40:40;101598.22;;;24.30;51.66
62708;BME280;48769;51.624;5.886;2023-05-14T07:43:05;101607.28;;;23.74;55.49
62708;BME280;48769;51.624;5.886;2023-05-14T07:45:30;101609.84;;;23.46;56.40
62708;BME280;48769;51.624;5.886;2023-05-14T07:47:56;101614.97;;;22.91;60.24
62708;BME280;48769;51.624;5.886;2023-05-14T07:50:22;101617.22;;;22.86;61.57
62708;BME280;48769;51.624;5.886;2023-05-14T07:52:47;101615.78;;;22.72;61.81
62708;BME280;48769;51.624;5.886;2023-05-14T07:55:12;101608.66;;;22.61;61.80
62708;BME280;48769;51.624;5.886;2023-05-14T07:57:38;101620.28;;;22.52;62.40
62708;BME280;48769;51.624;5.886;2023-05-14T08:00:05;101617.41;;;22.44;63.95
62708;BME280;48769;51.624;5.886;2023-05-14T08:02:32;101612.06;;;22.54;63.52
62708;BME280;48769;51.624;5.886;2023-05-14T08:04:57;101616.16;;;22.58;63.84
62708;BME280;48769;51.624;5.886;2023-05-14T08:07:23;101612.91;;;22.54;63.48
62708;BME280;48769;51.624;5.886;2023-05-14T08:09:48;101619.84;;;22.47;64.01
62708;BME280;48769;51.624;5.886;2023-05-14T08:12:14;101629.06;;;22.54;65.30
62708;BME280;48769;51.624;5.886;2023-05-14T08:14:40;101623.06;;;22.41;63.66
62708;BME280;48769;51.624;5.886;2023-05-14T08:17:05;101625.38;;;22.46;65.59
62708;BME280;48769;51.624;5.886;2023-05-14T08:19:31;101619.28;;;22.53;63.61
62708;BME280;48769;51.624;5.886;2023-05-14T08:21:57;101623.41;;;22.57;64.68
62708;BME280;48769;51.624;5.886;2023-05-14T08:24:22;101620.31;;;22.62;63.81
62708;BME280;48769;51.624;5.886;2023-05-14T08:26:47;101614.84;;;22.33;63.67
62708;BME280;48769;51.624;5.886;2023-05-14T08:29:13;101627.59;;;22.31;65.22
62708;BME280;48769;51.624;5.886;2023-05-14T08:31:38;101621.47;;;22.29;64.86
62708;BME280;48769;51.624;5.886;2023-05-14T08:34:04;101631.94;;;22.22;64.32
62708;BME280;48769;51.624;5.886;2023-05-14T08:36:29;101625.06;;;22.49;63.79
62708;BME280;48769;51.624;5.886;2023-05-14T08:38:55;101623.88;;;22.72;64.52
62708;BME280;48769;51.624;5.886;2023-05-14T08:41:20;101616.16;;;22.58;64.15
62708;BME280;48769;51.624;5.886;2023-05-14T08:44:17;101619.97;;;22.55;63.90
62708;BME280;48769;51.624;5.886;2023-05-14T08:46:40;101619.91;;;22.76;63.72
62708;BME280;48769;51.624;5.886;2023-05-14T08:49:21;101618.59;;;22.71;63.59
62708;BME280;48769;51.624;5.886;2023-05-14T08:51:49;101607.25;;;22.57;64.05
62708;BME280;48769;51.624;5.886;2023-05-14T08:54:15;101608.66;;;22.52;63.12
62708;BME280;48769;51.624;5.886;2023-05-14T08:56:43;101617.34;;;22.75;64.37
62708;BME280;48769;51.624;5.886;2023-05-14T08:59:10;101603.91;;;22.94;62.26
62708;BME280;48769;51.624;5.886;2023-05-14T09:01:37;101596.00;;;23.02;60.68
62708;BME280;48769;51.624;5.886;2023-05-14T09:04:04;101598.53;;;22.94;61.08
62708;BME280;48769;51.624;5.886;2023-05-14T09:06:34;101604.03;;;22.93;63.09
62708;BME280;48769;51.624;5.886;2023-05-14T09:09:00;101604.78;;;23.04;63.58
62708;BME280;48769;51.624;5.886;2023-05-14T09:11:25;101597.69;;;23.03;60.70
62708;BME280;48769;51.624;5.886;2023-05-14T09:13:51;101603.91;;;23.14;60.23
62708;BME280;48769;51.624;5.886;2023-05-14T09:16:17;101601.38;;;23.22;62.34
62708;BME280;48769;51.624;5.886;2023-05-14T09:18:43;101590.16;;;23.17;59.79
62708;BME280;48769;51.624;5.886;2023-05-14T09:21:09;101596.25;;;23.19;60.96
62708;BME280;48769;51.624;5.886;2023-05-14T09:23:34;101587.75;;;23.14;59.21
62708;BME280;48769;51.624;5.886;2023-05-14T09:26:05;101583.25;;;23.04;60.05
62708;BME280;48769;51.624;5.886;2023-05-14T09:28:31;101592.44;;;23.21;60.33
62708;BME280;48769;51.624;5.886;2023-05-14T09:30:56;101587.75;;;23.14;60.77
62708;BME280;48769;51.624;5.886;2023-05-14T09:33:25;101591.72;;;23.29;62.55
62708;BME280;48769;51.624;5.886;2023-05-14T09:35:55;101585.16;;;23.51;60.42
62708;BME280;48769;51.624;5.886;2023-05-14T09:38:23;101587.50;;;23.83;58.90
62708;BME280;48769;51.624;5.886;2023-05-14T09:40:51;101572.06;;;24.31;57.73
62708;BME280;48769;51.624;5.886;2023-05-14T09:43:17;101582.00;;;24.12;59.13
62708;BME280;48769;51.624;5.886;2023-05-14T09:45:42;101575.19;;;23.71;60.27
62708;BME280;48769;51.624;5.886;2023-05-14T09:48:07;101575.63;;;23.56;60.45
62708;BME280;48769;51.624;5.886;2023-05-14T09:50:40;101572.81;;;23.48;59.85
62708;BME280;48769;51.624;5.886;2023-05-14T09:53:06;101571.69;;;23.41;58.52
62708;BME280;48769;51.624;5.886;2023-05-14T09:55:32;101575.34;;;23.60;60.72
62708;BME280;48769;51.624;5.886;2023-05-14T09:57:58;101573.63;;;23.68;60.57
62708;BME280;48769;51.624;5.886;2023-05-14T10:00:23;101575.19;;;23.71;60.92
62708;BME280;48769;51.624;5.886;2023-05-14T10:02:49;101568.94;;;23.70;60.13
62708;BME280;48769;51.624;5.886;2023-05-14T10:05:17;101582.28;;;23.72;63.16
62708;BME280;48769;51.624;5.886;2023-05-14T10:07:48;101568.66;;;23.73;61.51
62708;BME280;48769;51.624;5.886;2023-05-14T10:10:18;101575.75;;;23.74;62.62
62708;BME280;48769;51.624;5.886;2023-05-14T10:13:06;101579.69;;;23.90;62.75
62708;BME280;48769;51.624;5.886;2023-05-14T10:15:39;101566.47;;;24.14;62.19
62708;BME280;48769;51.624;5.886;2023-05-14T10:18:11;101572.84;;;24.23;60.97
62708;BME280;48769;51.624;5.886;2023-05-14T10:20:40;101561.03;;;24.24;60.01
62708;BME280;48769;51.624;5.886;2023-05-14T10:23:06;101567.31;;;24.70;59.85
62708;BME280;48769;51.624;5.886;2023-05-14T10:25:33;101561.69;;;24.81;59.70
62708;BME280;48769;51.624;5.886;2023-05-14T10:27:59;101558.50;;;24.68;59.12
62708;BME280;48769;51.624;5.886;2023-05-14T10:30:25;101557.00;;;24.38;58.43
62708;BME280;48769;51.624;5.886;2023-05-14T10:33:20;101561.09;;;24.42;60.42
62708;BME280;48769;51.624;5.886;2023-05-14T10:36:04;101547.84;;;24.48;58.05
62708;BME280;48769;51.624;5.886;2023-05-14T10:38:34;101548.44;;;24.42;59.00
62708;BME280;48769;51.624;5.886;2023-05-14T10:41:01;101542.19;;;24.42;60.22
62708;BME280;48769;51.624;5.886;2023-05-14T10:43:28;101537.69;;;24.60;59.64
62708;BME280;48769;51.624;5.886;2023-05-14T10:45:55;101536.41;;;24.72;56.46
62708;BME280;48769;51.624;5.886;2023-05-14T10:48:21;101536.75;;;24.52;56.84
62708;BME280;48769;51.624;5.886;2023-05-14T10:50:47;101536.50;;;24.45;56.69
62708;BME280;48769;51.624;5.886;2023-05-14T10:53:13;101524.78;;;24.54;57.29
62708;BME280;48769;51.624;5.886;2023-05-14T10:55:38;101515.25;;;24.50;55.10
62708;BME280;48769;51.624;5.886;2023-05-14T10:58:04;101507.84;;;24.07;54.79
62708;BME280;48769;51.624;5.886;2023-05-14T11:00:32;101523.81;;;24.18;57.60
62708;BME280;48769;51.624;5.886;2023-05-14T11:02:59;101510.53;;;24.34;55.62
62708;BME280;48769;51.624;5.886;2023-05-14T11:05:24;101506.03;;;24.70;53.77
62708;BME280;48769;51.624;5.886;2023-05-14T11:07:55;101497.31;;;24.77;52.70
62708;BME280;48769;51.624;5.886;2023-05-14T11:10:21;101501.28;;;24.90;53.08
62708;BME280;48769;51.624;5.886;2023-05-14T11:12:49;101486.22;;;25.06;51.61
62708;BME280;48769;51.624;5.886;2023-05-14T11:15:17;101490.22;;;25.20;51.30
62708;BME280;48769;51.624;5.886;2023-05-14T11:17:44;101482.91;;;24.94;49.74
62708;BME280;48769;51.624;5.886;2023-05-14T11:20:10;101488.72;;;24.81;50.64
62708;BME280;48769;51.624;5.886;2023-05-14T11:22:37;101481.63;;;24.80;50.96
62708;BME280;48769;51.624;5.886;2023-05-14T11:25:03;101490.22;;;25.02;51.74
62708;BME280;48769;51.624;5.886;2023-05-14T11:27:29;101474.00;;;25.02;47.69
62708;BME280;48769;51.624;5.886;2023-05-14T11:29:55;101459.16;;;24.80;43.30
62708;BME280;48769;51.624;5.886;2023-05-14T11:32:22;101453.66;;;24.71;44.12
62708;BME280;48769;51.624;5.886;2023-05-14T11:34:47;101448.25;;;24.89;44.12
62708;BME280;48769;51.624;5.886;2023-05-14T11:37:14;101442.38;;;24.76;41.80
62708;BME280;48769;51.624;5.886;2023-05-14T11:42:13;101436.25;;;24.92;42.83
62708;BME280;48769;51.624;5.886;2023-05-14T11:44:40;101431.59;;;25.02;42.16
62708;BME280;48769;51.624;5.886;2023-05-14T11:47:06;101428.66;;;24.95;40.69
62708;BME280;48769;51.624;5.886;2023-05-14T11:49:32;101429.97;;;25.09;42.67
62708;BME280;48769;51.624;5.886;2023-05-14T11:52:01;101434.59;;;25.17;41.98
62708;BME280;48769;51.624;5.886;2023-05-14T11:54:28;101432.28;;;25.22;40.60
62708;BME280;48769;51.624;5.886;2023-05-14T11:56:55;101419.41;;;25.24;37.76
62708;BME280;48769;51.624;5.886;2023-05-14T11:59:23;101414.59;;;25.36;39.19
62708;BME280;48769;51.624;5.886;2023-05-14T12:01:48;101417.53;;;24.99;39.32
62708;BME280;48769;51.624;5.886;2023-05-14T12:04:17;101422.19;;;25.32;41.07
62708;BME280;48769;51.624;5.886;2023-05-14T12:06:47;101427.91;;;25.29;39.81
62708;BME280;48769;51.624;5.886;2023-05-14T12:09:12;101414.47;;;25.46;39.74
62708;BME280;48769;51.624;5.886;2023-05-14T12:11:40;101423.81;;;25.59;42.57
62708;BME280;48769;51.624;5.886;2023-05-14T12:14:19;101410.84;;;25.71;39.16
62708;BME280;48769;51.624;5.886;2023-05-14T12:16:45;101412.53;;;25.72;37.47
62708;BME280;48769;51.624;5.886;2023-05-14T12:19:14;101396.28;;;25.72;38.54
62708;BME280;48769;51.624;5.886;2023-05-14T12:21:41;101412.84;;;25.61;40.31
62708;BME280;48769;51.624;5.886;2023-05-14T12:24:17;101410.53;;;25.32;39.71
62708;BME280;48769;51.624;5.886;2023-05-14T12:26:46;101401.22;;;25.08;38.02
62708;BME280;48769;51.624;5.886;2023-05-14T12:29:13;101393.28;;;24.81;36.10
62708;BME280;48769;51.624;5.886;2023-05-14T12:31:45;101389.75;;;24.80;36.46
62708;BME280;48769;51.624;5.886;2023-05-14T12:34:11;101392.25;;;24.56;36.40
62708;BME280;48769;51.624;5.886;2023-05-14T12:36:36;101383.25;;;24.73;36.95
62708;BME280;48769;51.624;5.886;2023-05-14T12:39:02;101384.25;;;25.16;36.19
62708;BME280;48769;51.624;5.886;2023-05-14T12:41:29;101388.00;;;25.31;35.08
62708;BME280;48769;51.624;5.886;2023-05-14T12:43:55;101375.09;;;25.59;34.42
62708;BME280;48769;51.624;5.886;2023-05-14T12:46:21;101364.53;;;25.82;31.23
62708;BME280;48769;51.624;5.886;2023-05-14T12:48:46;101352.63;;;25.67;30.77
62708;BME280;48769;51.624;5.886;2023-05-14T12:51:11;101349.50;;;25.96;30.45
62708;BME280;48769;51.624;5.886;2023-05-14T12:53:37;101358.84;;;26.18;29.83